createdAt,value
2023-05-05T00:00:47.162Z,67.20
2023-05-05T00:02:48.816Z,68.33
2023-05-05T00:04:50.468Z,71.01
2023-05-05T00:06:52.088Z,72.11
2023-05-05T00:08:53.802Z,72.45
2023-05-05T00:10:56.546Z,73.08
2023-05-05T00:12:58.195Z,72.90
2023-05-05T00:14:59.798Z,73.09
2023-05-05T00:17:01.491Z,72.14
2023-05-05T00:19:03.115Z,72.22
2023-05-05T00:21:04.779Z,71.95
2023-05-05T00:23:06.883Z,71.09
2023-05-05T00:25:08.877Z,70.69
2023-05-05T00:27:10.759Z,71.15
2023-05-05T00:29:12.336Z,71.43
2023-05-05T00:31:16.732Z,71.28
2023-05-05T00:33:18.456Z,70.74
2023-05-05T00:35:20.193Z,70.18
2023-05-05T00:37:21.761Z,69.60
2023-05-05T00:39:23.463Z,69.71
2023-05-05T00:41:25.023Z,70.06
2023-05-05T00:43:26.978Z,70.42
2023-05-05T00:45:30.054Z,70.09
2023-05-05T00:47:31.760Z,69.68
2023-05-05T00:49:33.669Z,70.11
2023-05-05T00:51:35.380Z,70.40
2023-05-05T00:53:39.122Z,70.34
2023-05-05T00:55:40.811Z,69.96
2023-05-05T00:57:42.782Z,69.53
2023-05-05T00:59:44.874Z,69.25
2023-05-05T01:01:46.932Z,69.05
2023-05-05T01:03:48.538Z,68.94
2023-05-05T01:06:10.342Z,68.67
2023-05-05T01:08:18.052Z,68.41
2023-05-05T01:10:35.909Z,68.31
2023-05-05T01:12:46.841Z,68.27
2023-05-05T01:14:56.186Z,68.46
2023-05-05T01:17:04.657Z,68.18
2023-05-05T01:19:28.021Z,68.08
2023-05-05T01:21:34.086Z,68.12
2023-05-05T01:23:35.715Z,67.93
2023-05-05T01:25:56.639Z,68.27
2023-05-05T01:28:17.257Z,68.45
2023-05-05T01:30:44.010Z,69.48
2023-05-05T01:32:51.407Z,70.86
2023-05-05T01:35:01.062Z,71.91
2023-05-05T01:37:11.641Z,73.95
2023-05-05T01:39:16.192Z,75.26
2023-05-05T01:41:21.155Z,76.04
2023-05-05T01:43:23.464Z,76.12
2023-05-05T01:45:29.422Z,74.80
2023-05-05T01:47:31.555Z,74.77
2023-05-05T01:49:34.512Z,73.58
2023-05-05T01:51:36.959Z,72.49
2023-05-05T01:53:39.222Z,71.92
2023-05-05T01:55:41.197Z,71.39
2023-05-05T01:57:42.971Z,71.22
2023-05-05T01:59:44.656Z,70.98
2023-05-05T02:01:47.501Z,70.64
2023-05-05T02:03:51.170Z,70.71
2023-05-05T02:05:53.573Z,70.47
2023-05-05T02:07:58.363Z,70.66
2023-05-05T02:10:01.865Z,70.46
2023-05-05T02:12:04.903Z,69.95
2023-05-05T02:14:08.147Z,70.10
2023-05-05T02:16:10.440Z,69.91
2023-05-05T02:18:12.512Z,70.55
2023-05-05T02:20:14.949Z,70.31
2023-05-05T02:22:16.999Z,70.32
2023-05-05T02:24:18.657Z,69.65
2023-05-05T02:26:21.952Z,69.38
2023-05-05T02:28:33.131Z,69.85
2023-05-05T02:30:35.339Z,69.18
2023-05-05T02:32:43.176Z,68.92
2023-05-05T02:34:45.741Z,69.15
2023-05-05T02:36:47.909Z,68.96
2023-05-05T02:38:56.475Z,68.85
2023-05-05T02:40:58.259Z,68.79
2023-05-05T02:43:03.923Z,68.70
2023-05-05T02:45:12.633Z,68.41
2023-05-05T02:47:14.186Z,68.50
2023-05-05T02:49:16.171Z,68.47
2023-05-05T02:51:17.812Z,68.52
2023-05-05T02:53:20.355Z,68.27
2023-05-05T02:55:21.987Z,68.27
2023-05-05T02:57:30.623Z,67.92
2023-05-05T02:59:50.226Z,67.83
2023-05-05T03:02:14.612Z,67.56
2023-05-05T03:04:19.705Z,67.69
2023-05-05T03:06:22.867Z,67.46
2023-05-05T03:08:30.342Z,67.38
2023-05-05T03:10:38.984Z,67.51
2023-05-05T03:12:45.869Z,67.72
2023-05-05T03:14:48.839Z,67.31
2023-05-05T03:16:50.859Z,67.43
2023-05-05T03:18:52.674Z,67.41
2023-05-05T03:20:54.476Z,67.41
2023-05-05T03:22:56.311Z,68.24
2023-05-05T03:24:57.912Z,68.68
2023-05-05T03:26:59.559Z,68.40
2023-05-05T03:29:01.132Z,68.05
2023-05-05T03:31:03.283Z,67.97
2023-05-05T03:33:04.947Z,67.76
2023-05-05T03:35:07.320Z,67.53
2023-05-05T03:37:08.918Z,67.18
2023-05-05T03:39:10.924Z,66.78
2023-05-05T03:41:12.525Z,66.60
2023-05-05T03:43:14.098Z,66.65
2023-05-05T03:45:15.812Z,66.23
2023-05-05T03:47:17.595Z,65.84
2023-05-05T03:49:19.129Z,65.76
2023-05-05T03:51:20.744Z,66.71
2023-05-05T03:53:22.476Z,68.61
2023-05-05T03:55:24.588Z,70.58
2023-05-05T03:57:26.920Z,71.27
2023-05-05T03:59:28.518Z,71.94
2023-05-05T04:01:31.477Z,72.39
2023-05-05T04:03:33.118Z,71.27
2023-05-05T04:05:34.800Z,71.93
2023-05-05T04:07:36.369Z,72.40
2023-05-05T04:09:44.613Z,72.97
2023-05-05T04:11:46.206Z,73.96
2023-05-05T04:13:49.942Z,74.33
2023-05-05T04:15:51.531Z,74.65
2023-05-05T04:17:53.549Z,74.53
2023-05-05T04:19:55.198Z,75.66
2023-05-05T04:21:56.756Z,76.17
2023-05-05T04:23:58.869Z,75.50
2023-05-05T04:26:01.052Z,75.58
2023-05-05T04:28:02.940Z,76.20
2023-05-05T04:30:05.078Z,75.84
2023-05-05T04:32:06.772Z,76.74
2023-05-05T04:34:08.305Z,76.15
2023-05-05T04:36:09.916Z,76.66
2023-05-05T04:38:11.453Z,77.32
2023-05-05T04:40:13.305Z,76.48
2023-05-05T04:42:14.953Z,76.18
2023-05-05T04:44:16.498Z,76.79
2023-05-05T04:46:18.118Z,76.44
2023-05-05T04:48:20.872Z,76.29
2023-05-05T04:50:22.454Z,75.81
2023-05-05T04:52:24.088Z,76.16
2023-05-05T04:54:25.748Z,75.95
2023-05-05T04:56:27.498Z,75.74
2023-05-05T04:58:29.183Z,74.58
2023-05-05T05:00:31.040Z,73.32
2023-05-05T05:02:32.795Z,72.14
2023-05-05T05:04:34.507Z,71.20
2023-05-05T05:06:36.387Z,70.29
2023-05-05T05:08:38.091Z,70.15
2023-05-05T05:10:39.667Z,69.07
2023-05-05T05:12:41.299Z,68.54
2023-05-05T05:14:43.043Z,68.82
2023-05-05T05:16:44.646Z,67.58
2023-05-05T05:18:46.259Z,67.20
2023-05-05T05:20:47.845Z,66.84
2023-05-05T05:22:49.419Z,66.64
2023-05-05T05:24:52.213Z,66.43
2023-05-05T05:26:54.048Z,66.06
2023-05-05T05:28:55.719Z,65.59
2023-05-05T05:30:57.581Z,65.25
2023-05-05T05:32:59.159Z,64.72
2023-05-05T05:35:00.732Z,64.07
2023-05-05T05:37:02.366Z,64.04
2023-05-05T05:39:04.174Z,63.41
2023-05-05T05:41:07.730Z,62.73
2023-05-05T05:43:09.337Z,62.45
2023-05-05T05:45:11.146Z,62.40
2023-05-05T05:47:12.690Z,63.32
2023-05-05T05:49:14.271Z,64.49
2023-05-05T05:51:15.889Z,65.32
2023-05-05T05:53:18.003Z,64.71
2023-05-05T05:55:19.597Z,64.56
2023-05-05T05:57:22.504Z,64.31
2023-05-05T05:59:24.081Z,64.80
2023-05-05T06:01:25.721Z,66.17
2023-05-05T06:03:27.507Z,66.20
2023-05-05T06:05:29.169Z,65.69
2023-05-05T06:07:30.764Z,65.36
2023-05-05T06:09:32.426Z,64.63
2023-05-05T06:11:35.179Z,64.34
2023-05-05T06:13:36.745Z,64.13
2023-05-05T06:15:38.321Z,63.13
2023-05-05T06:17:39.975Z,62.23
2023-05-05T06:19:41.580Z,61.87
2023-05-05T06:21:43.478Z,62.13
2023-05-05T06:23:45.062Z,62.32
2023-05-05T06:25:46.797Z,62.23
2023-05-05T06:27:48.448Z,61.90
2023-05-05T06:29:50.022Z,61.78
2023-05-05T06:31:51.934Z,61.33
2023-05-05T06:33:53.657Z,61.03
2023-05-05T06:35:55.251Z,60.21
2023-05-05T06:37:56.890Z,60.09
2023-05-05T06:39:58.536Z,60.11
2023-05-05T06:42:00.108Z,59.00
2023-05-05T06:44:01.812Z,59.15
2023-05-05T06:46:03.554Z,58.78
2023-05-05T06:48:05.218Z,58.01
2023-05-05T06:50:08.690Z,58.16
2023-05-05T06:52:10.625Z,58.06
2023-05-05T06:54:12.308Z,57.43
2023-05-05T06:56:13.886Z,57.45
2023-05-05T06:58:15.527Z,57.73
2023-05-05T07:00:17.706Z,57.54
2023-05-05T07:02:19.296Z,57.90
2023-05-05T07:04:21.458Z,57.41
2023-05-05T07:06:23.281Z,58.31
2023-05-05T07:08:25.462Z,58.49
2023-05-05T07:10:27.746Z,60.50
2023-05-05T07:12:31.271Z,60.90
2023-05-05T07:14:32.951Z,60.61
2023-05-05T07:16:35.289Z,60.51
2023-05-05T07:18:36.924Z,59.72
2023-05-05T07:20:38.493Z,59.62
2023-05-05T07:22:40.135Z,59.99
2023-05-05T07:24:41.825Z,60.71
2023-05-05T07:26:43.562Z,60.64
2023-05-05T07:28:45.567Z,60.56
2023-05-05T07:30:47.121Z,59.71
2023-05-05T07:32:49.760Z,59.70
2023-05-05T07:34:51.477Z,59.91
2023-05-05T07:36:53.122Z,59.15
2023-05-05T07:38:54.871Z,58.12
2023-05-05T07:40:56.487Z,58.06
2023-05-05T07:42:58.122Z,58.07
2023-05-05T07:44:59.835Z,56.65
2023-05-05T07:47:01.472Z,56.80
2023-05-05T07:49:03.709Z,56.63
2023-05-05T07:51:05.307Z,55.81
2023-05-05T07:53:14.554Z,55.98
2023-05-05T07:55:16.862Z,55.45
2023-05-05T07:57:18.523Z,55.37
2023-05-05T08:01:42.693Z,55.53
2023-05-05T08:03:44.443Z,55.96
2023-05-05T08:05:47.187Z,54.85
2023-05-05T08:07:48.829Z,55.57
2023-05-05T08:09:50.433Z,55.25
2023-05-05T08:11:52.054Z,55.24
2023-05-05T08:13:53.697Z,54.73
2023-05-05T08:15:55.315Z,54.20
2023-05-05T08:17:57.937Z,53.62
2023-05-05T08:19:59.586Z,53.45
2023-05-05T08:22:01.672Z,53.46
2023-05-05T08:24:03.396Z,53.54
2023-05-05T08:26:06.471Z,53.33
2023-05-05T08:28:08.083Z,53.61
2023-05-05T08:30:10.068Z,54.20
2023-05-05T08:32:11.722Z,54.68
2023-05-05T08:34:13.372Z,54.67
2023-05-05T08:36:15.021Z,53.81
2023-05-05T08:38:17.207Z,53.46
2023-05-05T08:40:21.004Z,53.32
2023-05-05T08:42:36.366Z,51.60
2023-05-05T08:44:39.962Z,52.72
2023-05-05T08:46:41.605Z,53.05
2023-05-05T08:48:44.596Z,53.44
2023-05-05T08:50:50.036Z,52.53
2023-05-05T08:52:54.770Z,51.59
2023-05-05T08:55:18.526Z,51.69
2023-05-05T08:57:26.088Z,51.34
2023-05-05T08:59:30.357Z,50.01
2023-05-05T09:01:33.213Z,49.51
2023-05-05T09:03:36.843Z,49.51
2023-05-05T09:05:38.950Z,51.82
2023-05-05T09:07:41.434Z,53.19
2023-05-05T09:09:43.237Z,55.04
2023-05-05T09:11:45.255Z,55.31
2023-05-05T09:13:47.580Z,55.85
2023-05-05T09:15:49.266Z,56.08
2023-05-05T09:17:51.041Z,55.59
2023-05-05T09:20:07.367Z,55.74
2023-05-05T09:22:09.028Z,56.87
2023-05-05T09:24:12.298Z,57.57
2023-05-05T09:26:14.479Z,56.87
2023-05-05T09:28:18.489Z,56.71
2023-05-05T09:30:29.409Z,56.55
2023-05-05T09:32:32.798Z,57.20
2023-05-05T09:34:35.828Z,57.42
2023-05-05T09:36:44.484Z,56.68
2023-05-05T09:39:04.910Z,56.45
2023-05-05T09:41:06.603Z,56.30
2023-05-05T09:43:08.164Z,55.44
2023-05-05T09:45:18.691Z,55.78
2023-05-05T09:47:29.401Z,54.82
2023-05-05T09:49:31.685Z,54.09
2023-05-05T09:51:33.449Z,54.20
2023-05-05T09:53:40.368Z,54.40
2023-05-05T09:55:42.311Z,53.78
2023-05-05T09:57:43.888Z,53.23
2023-05-05T09:59:57.936Z,52.69
2023-05-05T10:02:12.122Z,53.05
2023-05-05T10:04:28.495Z,52.79
2023-05-05T10:06:43.743Z,52.92
2023-05-05T10:08:45.506Z,52.79
2023-05-05T10:10:55.235Z,52.29
2023-05-05T10:12:58.615Z,52.87
2023-05-05T10:15:02.216Z,51.93
2023-05-05T10:17:04.344Z,51.65
2023-05-05T10:19:06.280Z,51.04
2023-05-05T10:21:08.993Z,50.78
2023-05-05T10:23:14.242Z,49.91
2023-05-05T10:25:16.845Z,49.62
2023-05-05T10:27:56.795Z,49.38
2023-05-05T10:30:06.404Z,49.26
2023-05-05T10:32:37.120Z,49.68
2023-05-05T10:34:51.443Z,48.78
2023-05-05T10:36:55.195Z,49.20
2023-05-05T10:38:57.861Z,49.03
2023-05-05T10:41:01.192Z,49.81
2023-05-05T10:43:02.796Z,49.20
2023-05-05T10:45:05.222Z,50.08
2023-05-05T10:47:07.359Z,50.24
2023-05-05T10:49:20.838Z,50.09
2023-05-05T10:51:40.081Z,51.17
2023-05-05T10:53:53.988Z,51.20
2023-05-05T10:56:13.448Z,50.94
2023-05-05T10:58:55.632Z,50.43
2023-05-05T11:01:00.636Z,51.11
2023-05-05T11:03:21.868Z,50.95
2023-05-05T11:05:23.609Z,50.60
2023-05-05T11:07:26.089Z,50.79
2023-05-05T11:09:28.733Z,50.44
2023-05-05T11:12:01.759Z,50.65
2023-05-05T11:14:24.605Z,51.31
2023-05-05T11:16:47.805Z,51.72
2023-05-05T11:18:49.618Z,51.50
2023-05-05T11:20:57.565Z,51.72
2023-05-05T11:23:02.267Z,51.98
2023-05-05T11:25:40.736Z,52.35
2023-05-05T11:28:07.235Z,51.69
2023-05-05T11:30:10.621Z,51.41
2023-05-05T11:32:16.035Z,50.65
2023-05-05T11:34:26.817Z,50.09
2023-05-05T11:36:40.749Z,50.02
2023-05-05T11:39:00.956Z,49.57
2023-05-05T11:41:19.644Z,50.52
2023-05-05T11:43:21.280Z,52.27
2023-05-05T11:45:24.194Z,52.31
2023-05-05T11:47:27.375Z,52.14
2023-05-05T11:49:32.553Z,52.09
2023-05-05T11:51:34.165Z,51.47
2023-05-05T11:53:35.892Z,50.20
2023-05-05T11:55:37.474Z,50.51
2023-05-05T11:57:39.090Z,50.55
2023-05-05T12:00:02.582Z,48.77
2023-05-05T12:02:04.769Z,48.86
2023-05-05T12:04:06.884Z,50.19
2023-05-05T12:06:08.789Z,50.77
2023-05-05T12:08:10.508Z,50.41
2023-05-05T12:10:12.095Z,50.88
2023-05-05T12:12:14.515Z,51.33
2023-05-05T12:14:16.200Z,51.16
2023-05-05T12:16:19.460Z,51.33
2023-05-05T12:18:21.337Z,51.16
2023-05-05T12:20:31.644Z,50.28
2023-05-05T12:22:33.276Z,50.34
2023-05-05T12:24:35.164Z,49.44
2023-05-05T12:26:36.748Z,49.03
2023-05-05T12:28:48.285Z,48.50
2023-05-05T12:30:59.521Z,48.92
2023-05-05T12:33:03.735Z,49.86
2023-05-05T12:35:07.838Z,49.63
2023-05-05T12:37:09.475Z,49.59
2023-05-05T12:39:11.990Z,50.12
2023-05-05T12:41:18.259Z,49.60
2023-05-05T12:43:31.427Z,49.71
2023-05-05T12:45:33.032Z,49.32
2023-05-05T12:47:36.744Z,48.66
2023-05-05T12:49:47.898Z,48.13
2023-05-05T12:51:56.977Z,49.01
2023-05-05T12:54:11.593Z,50.43
2023-05-05T12:56:42.330Z,50.24
2023-05-05T12:58:48.637Z,49.39
2023-05-05T13:01:08.398Z,49.15
2023-05-05T13:03:20.023Z,48.87
2023-05-05T13:05:32.639Z,48.19
2023-05-05T13:07:34.246Z,47.85
2023-05-05T13:09:36.024Z,47.76
2023-05-05T13:11:38.556Z,48.51
2023-05-05T13:13:40.310Z,48.07
2023-05-05T13:15:41.906Z,48.24
2023-05-05T13:17:43.587Z,48.62
2023-05-05T13:19:48.029Z,48.21
2023-05-05T13:21:49.858Z,48.38
2023-05-05T13:23:51.530Z,48.37
2023-05-05T13:25:53.174Z,47.96
2023-05-05T13:27:54.769Z,48.25
2023-05-05T13:29:56.330Z,49.09
2023-05-05T13:31:58.001Z,49.83
2023-05-05T13:33:59.704Z,50.61
2023-05-05T13:36:01.930Z,50.74
2023-05-05T13:38:03.599Z,50.17
2023-05-05T13:40:06.110Z,50.20
2023-05-05T13:42:07.783Z,49.56
2023-05-05T13:44:09.384Z,49.35
2023-05-05T13:48:18.054Z,49.71
2023-05-05T13:50:19.677Z,49.35
2023-05-05T13:52:21.242Z,48.67
2023-05-05T13:54:22.972Z,48.92
2023-05-05T13:56:26.387Z,48.72
2023-05-05T13:58:28.019Z,48.23
2023-05-05T14:00:30.470Z,48.46
2023-05-05T14:02:32.187Z,49.27
2023-05-05T14:04:33.891Z,49.76
2023-05-05T14:06:36.212Z,49.81
2023-05-05T14:08:38.069Z,50.07
2023-05-05T14:10:40.505Z,49.72
2023-05-05T14:12:42.172Z,49.28
2023-05-05T14:14:43.857Z,49.57
2023-05-05T14:16:48.526Z,48.66
2023-05-05T14:18:51.464Z,47.41
2023-05-05T14:20:53.218Z,47.78
2023-05-05T14:22:54.918Z,48.20
2023-05-05T14:24:56.701Z,47.87
2023-05-05T14:26:58.319Z,47.25
2023-05-05T14:28:59.916Z,47.33
2023-05-05T14:31:01.858Z,46.63
2023-05-05T14:33:03.586Z,46.46
2023-05-05T14:35:06.013Z,46.37
2023-05-05T14:37:07.856Z,45.83
2023-05-05T14:39:09.533Z,45.33
2023-05-05T14:41:11.117Z,45.25
2023-05-05T14:43:12.779Z,45.30
2023-05-05T14:45:14.452Z,45.76
2023-05-05T14:47:19.301Z,45.93
2023-05-05T14:49:20.958Z,46.54
2023-05-05T14:51:24.587Z,47.69
2023-05-05T14:53:26.378Z,48.01
2023-05-05T14:55:27.968Z,48.04
2023-05-05T14:57:30.388Z,48.02
2023-05-05T14:59:32.069Z,48.82
2023-05-05T15:01:33.706Z,48.93
2023-05-05T15:03:35.528Z,49.17
2023-05-05T15:05:37.687Z,49.48
2023-05-05T15:07:40.139Z,49.24
2023-05-05T15:09:41.821Z,48.12
2023-05-05T15:11:45.108Z,47.88
2023-05-05T15:13:46.666Z,47.70
2023-05-05T15:15:49.116Z,47.47
2023-05-05T15:17:50.861Z,47.96
2023-05-05T15:19:52.544Z,48.07
2023-05-05T15:21:54.249Z,47.35
2023-05-05T15:23:55.916Z,47.08
2023-05-05T15:25:57.538Z,45.90
2023-05-05T15:28:00.922Z,45.30
2023-05-05T15:30:02.654Z,45.38
2023-05-05T15:32:04.530Z,45.24
2023-05-05T15:34:06.319Z,45.36
2023-05-05T15:36:08.363Z,45.35
2023-05-05T15:38:10.118Z,45.02
2023-05-05T15:40:12.154Z,45.46
2023-05-05T15:42:13.693Z,44.82
2023-05-05T15:44:15.393Z,44.16
2023-05-05T15:46:17.111Z,42.79
2023-05-05T15:48:18.670Z,42.87
2023-05-05T15:50:20.330Z,42.60
2023-05-05T15:52:22.204Z,43.70
2023-05-05T15:54:23.852Z,43.96
2023-05-05T15:56:27.430Z,43.25
2023-05-05T15:58:28.904Z,43.24
2023-05-05T16:00:31.437Z,42.20
2023-05-05T16:02:33.145Z,41.49
2023-05-05T16:04:34.742Z,42.83
2023-05-05T16:06:36.402Z,43.08
2023-05-05T16:08:38.352Z,42.89
2023-05-05T16:10:39.978Z,43.03
2023-05-05T16:12:41.598Z,42.60
2023-05-05T16:14:43.276Z,42.62
2023-05-05T16:16:44.918Z,42.94
2023-05-05T16:18:46.624Z,42.73
2023-05-05T16:20:48.220Z,41.88
2023-05-05T16:22:49.778Z,42.26
2023-05-05T16:24:51.607Z,42.27
2023-05-05T16:26:53.174Z,42.37
2023-05-05T16:28:54.820Z,42.23
2023-05-05T16:30:56.503Z,41.63
2023-05-05T16:32:58.167Z,41.33
2023-05-05T16:34:59.851Z,40.38
2023-05-05T16:37:01.563Z,40.33
2023-05-05T16:39:03.313Z,41.37
2023-05-05T16:41:06.741Z,43.29
2023-05-05T16:43:08.366Z,44.78
2023-05-05T16:45:10.643Z,44.86
2023-05-05T16:47:12.367Z,44.56
2023-05-05T16:49:13.893Z,45.04
2023-05-05T16:51:15.479Z,45.28
2023-05-05T16:53:17.176Z,44.82
2023-05-05T16:55:18.845Z,45.21
2023-05-05T16:57:20.565Z,45.37
2023-05-05T16:59:22.237Z,45.72
2023-05-05T17:01:23.968Z,46.17
2023-05-05T17:03:25.663Z,46.90
2023-05-05T17:05:27.357Z,47.79
2023-05-05T17:07:29.000Z,48.05
2023-05-05T17:09:30.740Z,48.33
2023-05-05T17:11:32.271Z,48.52
2023-05-05T17:13:33.928Z,48.79
2023-05-05T17:15:36.258Z,49.39
2023-05-05T17:17:37.917Z,49.80
2023-05-05T17:19:39.587Z,50.44
2023-05-05T17:21:42.887Z,50.50
2023-05-05T17:23:44.492Z,50.68
2023-05-05T17:25:46.126Z,50.73
2023-05-05T17:27:47.670Z,51.52
2023-05-05T17:29:49.219Z,51.31
2023-05-05T17:31:50.984Z,51.79
2023-05-05T17:33:52.528Z,51.92
2023-05-05T17:35:54.612Z,52.13
2023-05-05T17:37:56.797Z,51.99
2023-05-05T17:39:58.375Z,52.16
2023-05-05T17:42:00.003Z,52.45
2023-05-05T17:44:01.587Z,52.51
2023-05-05T17:46:03.233Z,52.33
2023-05-05T17:48:05.202Z,52.18
2023-05-05T17:50:07.210Z,52.14
2023-05-05T17:52:08.781Z,52.28
2023-05-05T17:54:10.393Z,52.42
2023-05-05T17:56:12.011Z,52.70
2023-05-05T17:58:13.816Z,52.45
2023-05-05T18:00:15.934Z,52.93
2023-05-05T18:02:19.044Z,53.53
2023-05-05T18:04:20.917Z,54.05
2023-05-05T18:06:22.526Z,53.60
2023-05-05T18:08:24.171Z,53.77
2023-05-05T18:10:25.801Z,53.97
2023-05-05T18:12:27.354Z,53.95
2023-05-05T18:14:28.999Z,53.87
2023-05-05T18:16:31.094Z,53.88
2023-05-05T18:18:32.755Z,53.70
2023-05-05T18:20:34.431Z,53.76
2023-05-05T18:22:36.538Z,53.76
2023-05-05T18:24:38.168Z,53.87
2023-05-05T18:26:39.771Z,54.09
2023-05-05T18:28:41.338Z,53.97
2023-05-05T18:30:42.993Z,54.08
2023-05-05T18:32:44.626Z,54.09
2023-05-05T18:34:46.392Z,54.30
2023-05-05T18:36:51.376Z,53.96
2023-05-05T18:38:53.612Z,53.78
2023-05-05T18:40:55.289Z,53.67
2023-05-05T18:42:56.976Z,53.64
2023-05-05T18:44:58.534Z,53.55
2023-05-05T18:47:00.267Z,53.95
2023-05-05T18:49:02.090Z,54.04
2023-05-05T18:51:04.690Z,54.29
2023-05-05T18:53:06.367Z,54.73
2023-05-05T18:55:08.803Z,54.94
2023-05-05T18:57:10.540Z,54.93
2023-05-05T18:59:12.142Z,55.27
2023-05-05T19:01:13.786Z,55.37
2023-05-05T19:03:15.542Z,55.51
2023-05-05T19:05:17.205Z,56.33
2023-05-05T19:07:31.341Z,56.02
2023-05-05T19:09:36.508Z,55.74
2023-05-05T19:11:41.785Z,56.29
2023-05-05T19:13:43.483Z,56.15
2023-05-05T19:15:45.163Z,56.51
2023-05-05T19:17:47.477Z,56.56
2023-05-05T19:19:49.197Z,56.78
2023-05-05T19:21:50.961Z,57.08
2023-05-05T19:23:52.666Z,57.31
2023-05-05T19:25:54.680Z,57.57
2023-05-05T19:27:56.308Z,57.88
2023-05-05T19:29:57.920Z,57.98
2023-05-05T19:31:59.569Z,58.03
2023-05-05T19:34:02.923Z,57.96
2023-05-05T19:36:04.722Z,58.03
2023-05-05T19:38:06.244Z,58.58
2023-05-05T19:40:08.715Z,58.58
2023-05-05T19:42:10.687Z,58.46
2023-05-05T19:44:12.400Z,58.00
2023-05-05T19:46:14.732Z,58.35
2023-05-05T19:48:16.431Z,58.42
2023-05-05T19:50:18.090Z,58.59
2023-05-05T19:52:22.665Z,58.29
2023-05-05T19:54:24.849Z,58.89
2023-05-05T19:56:26.527Z,58.64
2023-05-05T19:58:28.082Z,58.74
2023-05-05T20:00:29.721Z,58.32
2023-05-05T20:02:33.226Z,58.37
2023-05-05T20:04:35.943Z,58.11
2023-05-05T20:06:37.639Z,58.34
2023-05-05T20:08:39.267Z,58.32
2023-05-05T20:10:40.846Z,58.41
2023-05-05T20:12:47.901Z,58.29
2023-05-05T20:14:49.808Z,58.68
2023-05-05T20:16:51.765Z,58.49
2023-05-05T20:18:53.449Z,58.95
2023-05-05T20:20:55.172Z,59.07
2023-05-05T20:22:56.795Z,58.78
2023-05-05T20:24:58.358Z,59.19
2023-05-05T20:27:00.024Z,59.23
2023-05-05T20:29:01.775Z,59.48
2023-05-05T20:31:03.633Z,59.71
2023-05-05T20:33:05.372Z,59.83
2023-05-05T20:35:07.663Z,59.80
2023-05-05T20:37:10.116Z,59.81
2023-05-05T20:39:16.405Z,59.85
2023-05-05T20:41:18.091Z,59.80
2023-05-05T20:43:19.764Z,60.05
2023-05-05T20:45:21.531Z,60.18
2023-05-05T20:47:24.178Z,60.55
2023-05-05T20:49:26.244Z,60.54
2023-05-05T20:51:31.525Z,60.54
2023-05-05T20:53:33.314Z,60.40
2023-05-05T20:55:35.104Z,60.78
2023-05-05T20:57:36.669Z,60.34
2023-05-05T20:59:38.329Z,60.28
2023-05-05T21:01:40.032Z,60.72
2023-05-05T21:03:41.644Z,60.69
2023-05-05T21:05:43.431Z,60.66
2023-05-05T21:07:45.056Z,61.07
2023-05-05T21:09:46.898Z,60.73
2023-05-05T21:11:48.855Z,61.08
2023-05-05T21:13:50.474Z,61.01
2023-05-05T21:15:52.026Z,61.02
2023-05-05T21:17:53.659Z,61.34
2023-05-05T21:19:56.196Z,61.56
2023-05-05T21:21:59.198Z,61.59
2023-05-05T21:24:01.274Z,61.37
2023-05-05T21:26:03.205Z,62.05
2023-05-05T21:28:04.980Z,62.16
2023-05-05T21:30:09.382Z,61.75
2023-05-05T21:32:12.894Z,62.16
2023-05-05T21:34:14.547Z,61.92
2023-05-05T21:36:17.626Z,61.70
2023-05-05T21:38:19.203Z,61.85
2023-05-05T21:40:20.760Z,61.96
2023-05-05T21:42:22.330Z,61.74
2023-05-05T21:44:25.728Z,62.17
2023-05-05T21:46:27.488Z,61.87
2023-05-05T21:48:29.273Z,61.81
2023-05-05T21:50:30.848Z,61.94
2023-05-05T21:52:32.468Z,61.67
2023-05-05T21:54:34.002Z,62.15
2023-05-05T21:56:36.389Z,62.05
2023-05-05T21:58:38.052Z,62.14
2023-05-05T22:00:41.359Z,62.82
2023-05-05T22:02:45.114Z,62.82
2023-05-05T22:04:48.823Z,62.75
2023-05-05T22:06:50.488Z,62.84
2023-05-05T22:08:52.155Z,62.54
2023-05-05T22:10:53.751Z,62.79
2023-05-05T22:12:55.531Z,62.60
2023-05-05T22:14:57.246Z,62.96
2023-05-05T22:16:59.856Z,62.54
2023-05-05T22:19:01.662Z,63.00
2023-05-05T22:21:03.819Z,62.81
2023-05-05T22:23:05.407Z,62.90
2023-05-05T22:25:07.566Z,62.74
2023-05-05T22:27:10.408Z,63.14
2023-05-05T22:29:12.004Z,62.74
2023-05-05T22:31:13.723Z,63.09
2023-05-05T22:33:15.738Z,63.17
2023-05-05T22:35:17.818Z,62.95
2023-05-05T22:37:19.348Z,63.01
2023-05-05T22:39:20.913Z,62.78
2023-05-05T22:41:22.529Z,62.83
2023-05-05T22:43:24.148Z,62.91
2023-05-05T22:45:26.258Z,63.04
2023-05-05T22:47:27.928Z,63.07
2023-05-05T22:49:29.535Z,63.37
2023-05-05T22:51:31.781Z,63.24
2023-05-05T22:53:33.354Z,63.36
2023-05-05T22:55:34.953Z,63.44
2023-05-05T22:57:36.621Z,63.00
2023-05-05T22:59:38.738Z,63.61
2023-05-05T23:01:40.381Z,64.05
2023-05-05T23:03:42.013Z,64.35
2023-05-05T23:05:43.607Z,65.09
2023-05-05T23:07:45.227Z,65.91
2023-05-05T23:09:47.398Z,65.82
2023-05-05T23:11:48.969Z,66.17
2023-05-05T23:13:50.569Z,65.60
2023-05-05T23:15:52.161Z,65.37
2023-05-05T23:17:53.784Z,65.45
2023-05-05T23:19:55.588Z,64.60
2023-05-05T23:21:57.241Z,64.79
2023-05-05T23:23:58.886Z,64.94
2023-05-05T23:26:00.471Z,64.96
2023-05-05T23:28:02.039Z,64.55
2023-05-05T23:30:03.820Z,64.37
2023-05-05T23:32:05.845Z,65.04
2023-05-05T23:34:07.408Z,65.14
2023-05-05T23:36:09.271Z,66.82
2023-05-05T23:38:10.813Z,68.84
2023-05-05T23:40:12.392Z,69.93
2023-05-05T23:42:13.938Z,70.14
2023-05-05T23:44:15.523Z,70.68
2023-05-05T23:46:17.181Z,70.64
2023-05-05T23:48:18.708Z,69.91
2023-05-05T23:50:20.270Z,69.36
2023-05-05T23:52:22.639Z,69.33
2023-05-05T23:54:24.253Z,68.45
2023-05-05T23:56:26.352Z,68.57
2023-05-05T23:58:27.981Z,68.20
